Carrsville, Virginia
Current Conditions -  °F | °C
As of 9:35 PM on Tuesday 25 Nov 2014 (Local Time) from KFKN Reporting Station
Overcast Overcast  
Wind Chill: 48°   Ceiling: 3700
Heat Index: 48°   Visibility: 7mi
Dew Point: 46°   Wind: 0mph
Humidity: 93%   Direction: NA
Pressure: 30.13"   Gusts: NA
Location:  36.71°N, 76.83°W
Report Text: KFKN 260235Z AUTO 00000KT 7SM SCT029 BKN037 OVC065 09/08 A3013 RMK AO1
Loading
Personal Weather Stations






























Interactive Weather Map New forecast layout! Learn more

10-Day Weather Forecast

Advertisements
Track Severe Weather on mobile